14 | 04 | 2021

Daten Vortag

Klimadaten von 10m Höhe gemessen, Station  

Datum / Zeit Intervall min Luftfeuchte % Temperatur °C absolut Luftdruck hPa Wind m/s Windbö m/s Richtung Relative Luftdruck hPa Taupunkt °C Windchill °C Niederschlag mm
13-04-2021 00:10 5 76 2.2 1024.0 1.1 2.5 SW 1025.3 -1.6 2.2 0.0
13-04-2021 00:15 5 76 2.2 1024.3 1.1 3.6 SW 1025.6 -1.6 2.2 0.0
13-04-2021 00:20 5 77 2.1 1024.2 2.5 3.6 SW 1025.5 -1.5 2.1 0.0
13-04-2021 00:25 5 77 2.0 1024.1 2.5 3.6 SW 1025.4 -1.6 2.0 0.0
13-04-2021 00:30 5 78 2.0 1024.1 2.5 5.0 S 1025.4 -1.4 2.0 0.0
13-04-2021 00:35 5 78 2.0 1024.3 2.5 3.6 SW 1025.6 -1.4 2.0 0.0
13-04-2021 00:40 5 78 2.0 1024.1 5.0 6.1 SW 1025.4 -1.4 2.0 0.0
13-04-2021 00:45 5 79 1.9 1024.3 3.6 7.2 S 1025.6 -1.4 1.9 0.0
13-04-2021 00:50 5 79 1.8 1024.1 3.6 6.1 SW 1025.4 -1.5 1.8 0.0
13-04-2021 00:55 5 79 1.8 1024.2 3.6 6.1 SW 1025.5 -1.5 1.8 0.0
13-04-2021 01:00 5 79 1.9 1024.3 5.0 7.2 SW 1025.6 -1.4 1.9 0.0
13-04-2021 01:05 5 80 2.0 1024.2 5.0 7.2 S 1025.5 -1.1 2.0 0.0
13-04-2021 01:10 5 80 2.0 1024.2 3.6 6.1 W 1025.5 -1.1 2.0 0.0
13-04-2021 01:15 5 80 2.1 1024.0 5.0 6.1 S 1025.3 -1.0 2.1 0.0
13-04-2021 01:20 5 79 2.0 1024.2 3.6 7.2 SW 1025.5 -1.3 2.0 0.0
13-04-2021 01:25 5 79 2.0 1024.1 5.0 8.6 S 1025.4 -1.3 2.0 0.0
13-04-2021 01:30 5 79 2.0 1024.3 3.6 5.0 SW 1025.6 -1.3 2.0 0.0
13-04-2021 01:35 5 80 2.0 1024.2 2.5 5.0 S 1025.5 -1.1 2.0 0.0
13-04-2021 01:40 5 80 2.0 1024.0 6.1 8.6 SW 1025.3 -1.1 2.0 0.0
13-04-2021 01:45 5 80 2.2 1024.3 3.6 5.0 SW 1025.6 -0.9 2.2 0.0
13-04-2021 01:50 5 80 2.1 1024.1 5.0 8.6 SW 1025.4 -1.0 2.1 0.0
13-04-2021 01:55 5 80 2.0 1024.1 5.0 6.1 SW 1025.4 -1.1 2.0 0.0
13-04-2021 02:00 5 80 2.0 1024.0 6.1 9.7 SW 1025.3 -1.1 2.0 0.0
13-04-2021 02:05 5 80 2.0 1024.0 6.1 9.7 SW 1025.3 -1.1 2.0 0.0
13-04-2021 02:10 5 80 1.9 1024.1 3.6 5.0 SW 1025.4 -1.2 1.9 0.0
13-04-2021 02:15 5 80 1.9 1024.0 2.5 3.6 SW 1025.3 -1.2 1.9 0.0
13-04-2021 02:20 5 80 1.8 1024.0 5.0 6.1 SW 1025.3 -1.3 1.8 0.0
13-04-2021 02:25 5 80 1.7 1024.0 6.1 7.2 S 1025.3 -1.4 1.7 0.0
13-04-2021 02:30 5 80 1.5 1024.2 6.1 8.6 SSW 1025.5 -1.6 1.5 0.0
13-04-2021 02:35 5 80 1.6 1023.9 6.1 8.6 SW 1025.2 -1.5 1.6 0.0
13-04-2021 02:40 5 81 1.7 1024.0 5.0 7.2 SW 1025.3 -1.2 1.7 0.0
13-04-2021 02:45 5 81 1.7 1023.9 2.5 3.6 S 1025.2 -1.2 1.7 0.0
13-04-2021 02:50 5 81 1.8 1024.2 6.1 7.2 W 1025.5 -1.1 1.8 0.0
13-04-2021 02:55 5 80 1.8 1024.1 5.0 8.6 S 1025.4 -1.3 1.8 0.0
13-04-2021 03:00 5 80 1.8 1024.2 3.6 5.0 SW 1025.5 -1.3 1.8 0.0
13-04-2021 03:05 5 80 1.7 1023.9 5.0 7.2 W 1025.2 -1.4 1.7 0.0
13-04-2021 03:10 5 80 1.7 1024.1 5.0 6.1 SWW 1025.4 -1.4 1.7 0.0
13-04-2021 03:15 5 80 1.6 1024.3 3.6 5.0 W 1025.6 -1.5 1.6 0.0
13-04-2021 03:20 5 80 1.6 1024.0 3.6 6.1 S 1025.3 -1.5 1.6 0.0
13-04-2021 03:25 5 80 1.6 1024.1 2.5 5.0 SW 1025.4 -1.5 1.6 0.0
13-04-2021 03:30 5 80 1.6 1024.0 3.6 6.1 SWW 1025.3 -1.5 1.6 0.0
13-04-2021 03:35 5 80 1.6 1024.1 3.6 5.0 SWW 1025.4 -1.5 1.6 0.0
13-04-2021 03:40 5 81 1.6 1024.0 3.6 5.0 S 1025.3 -1.3 1.6 0.0
13-04-2021 03:45 5 81 1.6 1023.9 3.6 5.0 S 1025.2 -1.3 1.6 0.0
13-04-2021 03:50 5 81 1.6 1024.0 5.0 8.6 SWW 1025.3 -1.3 1.6 0.0
13-04-2021 03:55 5 81 1.6 1024.0 5.0 7.2 W 1025.3 -1.3 1.6 0.0
13-04-2021 04:00 5 81 1.6 1023.9 5.0 8.6 SW 1025.2 -1.3 1.6 0.0
13-04-2021 04:05 5 81 1.6 1024.0 3.6 6.1 SW 1025.3 -1.3 1.6 0.0
13-04-2021 04:10 5 81 1.6 1024.1 2.5 3.6 S 1025.4 -1.3 1.6 0.0
13-04-2021 04:15 5 81 1.6 1024.1 5.0 6.1 SWW 1025.4 -1.3 1.6 0.0
13-04-2021 04:20 5 81 1.6 1024.0 2.5 3.6 SWW 1025.3 -1.3 1.6 0.0
13-04-2021 04:25 5 81 1.6 1024.0 6.1 8.6 W 1025.3 -1.3 1.6 0.0
13-04-2021 04:30 5 81 1.6 1024.0 8.6 12.2 W 1025.3 -1.3 -1.1 0.0
13-04-2021 04:35 5 81 1.5 1023.8 5.0 7.2 SW 1025.1 -1.4 1.5 0.0
13-04-2021 04:40 5 81 1.5 1024.0 3.6 6.1 SW 1025.3 -1.4 1.5 0.0
13-04-2021 04:45 5 81 1.5 1024.0 6.1 7.2 SWW 1025.3 -1.4 1.5 0.0
13-04-2021 04:50 5 81 1.5 1023.9 3.6 6.1 W 1025.2 -1.4 1.5 0.0
13-04-2021 04:55 5 81 1.4 1023.8 3.6 5.0 SW 1025.1 -1.5 1.4 0.0
13-04-2021 05:00 5 81 1.4 1023.8 5.0 7.2 SW 1025.1 -1.5 1.4 0.0
13-04-2021 05:05 5 81 1.4 1023.8 5.0 6.1 W 1025.1 -1.5 1.4 0.0
13-04-2021 05:10 5 81 1.4 1023.8 2.5 5.0 S 1025.1 -1.5 1.4 0.0
13-04-2021 05:15 5 81 1.3 1023.8 3.6 6.1 W 1025.1 -1.6 1.3 0.0
13-04-2021 05:20 5 82 1.3 1024.0 3.6 5.0 SW 1025.3 -1.4 1.3 0.0
13-04-2021 05:25 5 82 1.3 1023.9 6.1 8.6 W 1025.2 -1.4 1.3 0.0
13-04-2021 05:30 5 82 1.3 1024.0 5.0 7.2 SW 1025.3 -1.4 1.3 0.0
13-04-2021 05:35 5 82 1.3 1024.2 3.6 6.1 W 1025.5 -1.4 1.3 0.0
13-04-2021 05:40 5 82 1.3 1024.0 5.0 7.2 SW 1025.3 -1.4 1.3 0.0
13-04-2021 05:45 5 82 1.3 1024.1 6.1 7.2 W 1025.4 -1.4 1.3 0.0
13-04-2021 05:50 5 82 1.3 1024.0 3.6 5.0 SW 1025.3 -1.4 1.3 0.0
13-04-2021 05:55 5 82 1.2 1024.1 5.0 6.1 W 1025.4 -1.5 1.2 0.0
13-04-2021 06:00 5 82 1.2 1024.0 5.0 7.2 W 1025.3 -1.5 1.2 0.0
13-04-2021 06:05 5 83 1.3 1024.2 3.6 7.2 SW 1025.5 -1.3 1.3 0.0
13-04-2021 06:10 5 83 1.3 1024.1 2.5 5.0 SWW 1025.4 -1.3 1.3 0.0
13-04-2021 06:15 5 83 1.3 1023.9 3.6 7.2 SW 1025.2 -1.3 1.3 0.0
13-04-2021 06:20 5 83 1.3 1024.0 5.0 7.2 SWW 1025.3 -1.3 1.3 0.0
13-04-2021 06:25 5 83 1.2 1024.1 5.0 7.2 SW 1025.4 -1.4 1.2 0.0
13-04-2021 06:30 5 83 1.2 1024.3 7.2 11.2 SW 1025.6 -1.4 -0.4 0.0
13-04-2021 06:35 5 83 1.3 1024.0 2.5 5.0 W 1025.3 -1.3 1.3 0.0
13-04-2021 06:40 5 83 1.3 1024.1 3.6 5.0 W 1025.4 -1.3 1.3 0.0
13-04-2021 06:45 5 83 1.3 1024.4 5.0 8.6 SW 1025.7 -1.3 1.3 0.0
13-04-2021 06:50 5 83 1.3 1024.1 3.6 5.0 SW 1025.4 -1.3 1.3 0.0
13-04-2021 06:55 5 83 1.3 1024.5 2.5 3.6 SW 1025.8 -1.3 1.3 0.0
13-04-2021 07:00 5 83 1.3 1024.4 5.0 9.7 W 1025.7 -1.3 1.3 0.0
13-04-2021 07:05 5 83 1.3 1024.7 5.0 9.7 W 1026.0 -1.3 1.3 0.0
13-04-2021 07:10 5 84 1.7 1024.5 5.0 8.6 SW 1025.8 -0.7 1.7 0.0
13-04-2021 07:15 5 84 1.9 1024.7 5.0 7.2 W 1026.0 -0.5 1.9 0.0
13-04-2021 07:20 5 83 2.2 1024.5 6.1 8.6 SW 1025.8 -0.4 2.2 0.0
13-04-2021 07:25 5 83 2.3 1024.7 3.6 6.1 W 1026.0 -0.3 2.3 0.0
13-04-2021 07:30 5 82 2.5 1024.7 7.2 13.3 SW 1026.0 -0.3 1.0 0.0
13-04-2021 07:35 5 82 2.6 1024.5 7.2 12.2 SSW 1025.8 -0.2 1.1 0.0
13-04-2021 07:40 5 81 2.7 1024.9 6.1 11.2 W 1026.2 -0.2 2.7 0.0
13-04-2021 07:45 5 81 2.8 1024.6 6.1 8.6 S 1025.9 -0.1 2.8 0.0
13-04-2021 07:50 5 81 2.9 1024.7 8.6 9.7 SW 1026.0 0.0 0.3 0.3
13-04-2021 07:55 5 81 2.9 1024.8 6.1 9.7 W 1026.1 0.0 2.9 0.3
13-04-2021 08:00 5 81 3.0 1024.8 9.7 12.2 W 1026.1 0.1 -0.4 0.3
13-04-2021 08:05 5 81 3.1 1025.0 6.1 9.7 W 1026.3 0.2 3.1 0.3
13-04-2021 08:10 5 81 3.2 1024.9 7.2 9.7 SW 1026.2 0.3 1.7 0.3
13-04-2021 08:15 5 81 3.3 1024.8 7.2 12.2 W 1026.1 0.4 1.8 0.3
13-04-2021 08:20 5 81 3.4 1024.6 9.7 15.8 SSW 1025.9 0.5 0.1 0.3
13-04-2021 08:25 5 81 3.4 1024.7 8.6 12.2 W 1026.0 0.5 0.8 0.3
13-04-2021 08:30 5 81 3.6 1024.9 7.2 15.8 NW 1026.2 0.6 2.2 0.3
13-04-2021 08:35 5 81 3.8 1025.1 6.1 8.6 W 1026.4 0.8 3.8 0.3
13-04-2021 08:40 5 81 3.9 1025.0 6.1 8.6 SW 1026.3 0.9 3.9 0.3
13-04-2021 08:45 5 81 4.0 1025.2 9.7 12.2 W 1026.5 1.0 0.7 0.3
13-04-2021 08:50 5 81 4.1 1025.0 7.2 11.2 S 1026.3 1.1 2.7 0.0
13-04-2021 08:55 5 80 4.0 1025.1 9.7 12.2 W 1026.4 0.9 0.7 0.0
13-04-2021 09:00 5 80 4.0 1025.3 9.7 12.2 SWW 1026.6 0.9 0.7 0.0
13-04-2021 09:05 5 80 4.0 1025.4 9.7 12.2 SWW 1026.7 0.9 0.7 0.0
13-04-2021 09:10 5 80 4.2 1025.1 11.2 14.8 SW 1026.4 1.1 0.1 0.0
13-04-2021 09:15 5 80 4.3 1025.3 11.2 15.8 W 1026.6 1.2 0.2 0.0
13-04-2021 09:20 5 80 4.5 1025.3 9.7 12.2 NW 1026.6 1.4 1.3 0.0
13-04-2021 09:25 5 80 4.8 1025.3 12.2 14.8 SW 1026.6 1.6 0.2 0.0
13-04-2021 09:30 5 80 4.9 1025.2 12.2 17.3 W 1026.5 1.7 0.3 0.0
13-04-2021 09:35 5 80 5.1 1025.2 15.8 19.4 W 1026.5 1.9 -1.2 0.0
13-04-2021 09:40 5 80 5.3 1025.4 7.2 9.7 W 1026.7 2.1 3.9 0.0
13-04-2021 09:45 5 79 5.1 1025.3 11.2 14.8 W 1026.6 1.8 1.1 0.0
13-04-2021 09:50 5 79 5.4 1025.4 9.7 14.8 S 1026.7 2.1 2.3 0.0
13-04-2021 09:55 5 79 5.6 1025.2 14.8 17.3 W 1026.5 2.3 -0.1 0.0
13-04-2021 10:00 5 78 5.7 1025.5 11.2 14.8 W 1026.8 2.2 1.8 0.0
13-04-2021 10:05 5 78 5.7 1025.3 11.2 14.8 W 1026.6 2.2 1.8 0.0
13-04-2021 10:10 5 77 6.2 1025.5 12.2 15.8 W 1026.8 2.5 1.8 0.0
13-04-2021 10:15 5 76 6.4 1025.5 6.1 8.6 SW 1026.8 2.5 6.4 0.0
13-04-2021 10:20 5 76 6.2 1025.5 8.6 9.7 W 1026.8 2.3 3.9 0.0
13-04-2021 10:25 5 75 6.2 1025.2 8.6 11.2 SWW 1026.5 2.1 3.9 0.0
13-04-2021 10:30 5 75 6.7 1025.6 8.6 12.2 W 1026.9 2.6 4.4 0.0
13-04-2021 10:35 5 74 6.6 1025.6 9.7 13.3 W 1026.9 2.3 3.6 0.0
13-04-2021 10:40 5 73 7.0 1025.6 8.6 14.8 SW 1026.9 2.5 4.7 0.0
13-04-2021 10:45 5 72 7.0 1025.5 13.3 17.3 W 1026.8 2.3 2.2 0.0
13-04-2021 10:50 5 72 7.3 1025.4 12.2 13.3 W 1026.7 2.6 3.1 0.0
13-04-2021 10:55 5 71 7.4 1025.2 11.2 14.8 SW 1026.5 2.5 3.7 0.0
13-04-2021 11:00 5 66 7.6 1025.5 6.1 8.6 NNW 1026.8 1.7 7.6 0.0
13-04-2021 11:05 5 65 7.5 1025.6 15.8 18.4 N 1026.9 1.4 1.8 0.0
13-04-2021 11:10 5 70 7.2 1025.5 9.7 12.2 W 1026.8 2.1 4.3 0.0
13-04-2021 11:15 5 65 7.6 1025.5 13.3 18.4 SWW 1026.8 1.5 2.9 0.0
13-04-2021 11:20 5 65 7.8 1025.6 17.3 19.4 W 1026.9 1.6 1.6 0.0
13-04-2021 11:25 5 63 8.0 1025.4 14.8 18.4 SW 1026.7 1.4 2.8 0.0
13-04-2021 11:30 5 62 8.3 1025.5 14.8 18.4 W 1026.8 1.5 3.2 0.0
13-04-2021 11:35 5 62 7.9 1025.6 14.8 19.4 SWW 1026.9 1.1 2.7 0.0
13-04-2021 11:40 5 62 7.8 1025.6 17.3 23.4 W 1026.9 1.0 1.6 0.0
13-04-2021 11:45 5 61 8.0 1025.3 20.9 25.6 NW 1026.6 0.9 0.7 0.0
13-04-2021 11:50 5 62 8.5 1025.5 14.8 17.3 W 1026.8 1.6 3.4 0.0
13-04-2021 11:55 5 63 8.9 1025.5 15.8 22.0 W 1026.8 2.2 3.5 0.0
13-04-2021 12:00 5 61 8.7 1025.2 17.3 20.9 W 1026.5 1.6 2.7 0.0
13-04-2021 12:05 5 61 8.7 1025.3 17.3 20.9 W 1026.6 1.6 2.7 0.0
13-04-2021 12:10 5 62 8.8 1025.6 17.3 22.0 W 1026.9 1.9 2.9 0.0
13-04-2021 12:15 5 59 8.6 1025.2 15.8 18.4 W 1026.5 1.1 3.1 0.0
13-04-2021 12:20 5 60 8.1 1025.2 22.0 27.0 NW 1026.5 0.8 0.6 0.0
13-04-2021 12:25 5 61 8.2 1025.5 17.3 20.9 NW 1026.8 1.1 2.1 0.0
13-04-2021 12:30 5 62 8.3 1025.4 13.3 15.8 NWW 1026.7 1.5 3.8 0.0
13-04-2021 12:35 5 63 7.7 1025.1 13.3 17.3 W 1026.4 1.1 3.0 0.0
13-04-2021 12:44 5 61 7.7 1025.4 18.4 22.0 SW 1026.7 0.7 1.1 0.0
13-04-2021 12:49 5 60 8.8 1025.0 17.3 20.9 W 1026.3 1.5 2.9 0.0
13-04-2021 12:54 5 54 8.9 1025.6 18.4 20.9 W 1026.9 0.1 2.6 0.0
13-04-2021 12:59 5 56 9.1 1025.3 12.2 19.4 W 1026.6 0.8 5.2 0.0
13-04-2021 13:04 5 54 9.3 1025.5 6.1 9.7 NW 1026.8 0.5 9.3 0.0
13-04-2021 13:09 5 55 9.5 1025.1 14.8 19.4 W 1026.4 0.9 4.6 0.0
13-04-2021 13:14 5 55 10.0 1025.5 18.4 23.4 W 1026.8 1.4 4.0 0.0
13-04-2021 13:19 5 55 9.9 1025.3 14.8 18.4 W 1026.6 1.3 5.1 0.0
13-04-2021 13:24 5 55 9.8 1025.4 20.9 25.6 W 1026.7 1.2 3.0 0.0
13-04-2021 13:29 5 53 8.9 1025.3 17.3 20.9 W 1026.6 -0.2 3.0 0.0
13-04-2021 13:34 5 58 8.7 1025.3 14.8 18.4 NW 1026.6 0.9 3.6 0.0
13-04-2021 13:39 5 57 8.5 1025.3 12.2 15.8 NWW 1026.6 0.5 4.5 0.0
13-04-2021 13:44 5 60 8.9 1025.3 3.6 5.0 NW 1026.6 1.6 8.9 0.0
13-04-2021 13:49 5 59 9.3 1025.5 18.4 24.5 NW 1026.8 1.7 3.1 0.0
13-04-2021 13:54 5 56 8.2 1025.6 5.0 9.7 NW 1026.9 0.0 8.2 0.0
13-04-2021 13:59 5 58 8.0 1025.5 2.5 5.0 SE 1026.8 0.2 8.0 0.0
13-04-2021 14:04 5 60 8.2 1025.6 14.8 19.4 NWW 1026.9 0.9 3.0 0.0
13-04-2021 14:09 5 60 8.2 1025.5 14.8 19.4 NWW 1026.8 0.9 3.0 0.0
13-04-2021 14:14 5 60 9.1 1025.3 3.6 5.0 SE 1026.6 1.8 9.1 0.0
13-04-2021 14:19 5 55 9.8 1025.4 14.8 18.4 W 1026.7 1.2 5.0 0.0
13-04-2021 14:24 5 55 9.9 1025.4 11.2 13.3 W 1026.7 1.3 6.6 0.0
13-04-2021 14:29 5 52 10.0 1025.2 5.0 7.2 N 1026.5 0.6 10.0 0.0
13-04-2021 14:34 5 52 10.2 1025.7 11.2 14.8 W 1027.0 0.8 6.9 0.0
13-04-2021 14:39 5 54 10.4 1025.5 14.8 18.4 N 1026.8 1.5 5.7 0.0
13-04-2021 14:44 5 56 10.5 1025.4 11.2 17.3 W 1026.7 2.1 7.3 0.0
13-04-2021 14:49 5 56 10.6 1025.3 8.6 14.8 NW 1026.6 2.2 8.6 0.0
13-04-2021 14:54 5 58 9.7 1025.7 7.2 14.8 N 1027.0 1.8 8.6 0.0
13-04-2021 14:59 5 58 9.1 1025.5 8.6 12.2 NWW 1026.8 1.3 7.0 0.0
13-04-2021 15:04 5 59 8.7 1025.7 8.6 12.2 NW 1027.0 1.1 6.6 0.0
13-04-2021 15:09 5 59 7.8 1025.7 9.7 15.8 NE 1027.0 0.3 5.0 0.0
13-04-2021 15:14 5 62 8.2 1025.7 5.0 7.2 NW 1027.0 1.4 8.2 0.0
13-04-2021 15:19 5 63 8.1 1025.7 8.6 14.8 N 1027.0 1.5 5.9 0.0
13-04-2021 15:24 5 63 7.6 1025.7 8.6 12.2 W 1027.0 1.0 5.4 0.0
13-04-2021 15:29 5 67 7.4 1025.5 9.7 15.8 NW 1026.8 1.7 4.5 0.0
13-04-2021 15:34 5 67 7.4 1025.3 19.4 27.0 W 1026.6 1.7 0.4 0.0
13-04-2021 15:39 5 66 7.2 1025.3 15.8 20.9 W 1026.6 1.3 1.4 0.0
13-04-2021 15:44 5 62 7.7 1025.1 19.4 22.0 W 1026.4 0.9 0.8 0.0
13-04-2021 15:49 5 61 8.9 1025.6 13.3 17.3 W 1026.9 1.8 4.5 0.0
13-04-2021 15:54 5 57 9.3 1025.2 17.3 23.4 SWW 1026.5 1.2 3.5 0.0
13-04-2021 15:59 5 53 9.6 1025.0 13.3 17.3 W 1026.3 0.5 5.3 0.0
13-04-2021 16:04 5 52 9.5 1024.9 12.2 15.8 NWW 1026.2 0.1 5.6 0.0
13-04-2021 16:09 5 52 9.5 1025.0 12.2 15.8 NWW 1026.3 0.1 5.6 0.0
13-04-2021 16:14 5 50 9.9 1024.9 22.0 29.5 SW 1026.2 0.0 2.9 0.0
13-04-2021 16:19 5 51 9.8 1025.0 20.9 25.6 W 1026.3 0.2 3.0 0.0
13-04-2021 16:24 5 51 9.6 1024.9 25.6 28.1 W 1026.2 0.0 1.7 0.0
13-04-2021 16:29 5 51 9.9 1024.7 17.3 27.0 W 1026.0 0.2 4.2 0.0
13-04-2021 16:34 5 52 9.8 1024.9 20.9 25.6 W 1026.2 0.4 3.0 0.0
13-04-2021 16:39 5 51 9.0 1025.0 18.4 24.5 SWW 1026.3 -0.6 2.8 0.0
13-04-2021 16:44 5 53 8.6 1025.1 14.8 20.9 W 1026.4 -0.4 3.5 0.0
13-04-2021 16:49 5 54 8.2 1025.1 15.8 19.4 W 1026.4 -0.5 2.6 0.0
13-04-2021 16:54 5 53 8.1 1025.1 15.8 20.9 W 1026.4 -0.9 2.5 0.0
13-04-2021 16:59 5 55 8.4 1024.9 9.7 12.2 W 1026.2 -0.1 5.6 0.0
13-04-2021 17:04 5 56 8.5 1025.1 8.6 11.2 NW 1026.4 0.2 6.4 0.0
13-04-2021 17:09 5 55 8.2 1025.1 14.8 18.4 SW 1026.4 -0.3 3.0 0.0
13-04-2021 17:14 5 56 8.0 1025.4 8.6 13.3 W 1026.7 -0.2 5.8 0.0
13-04-2021 17:19 5 60 8.3 1025.2 18.4 20.9 W 1026.5 1.0 1.9 0.0
13-04-2021 17:24 5 61 9.1 1025.1 17.3 23.4 W 1026.4 2.0 3.2 0.0
13-04-2021 17:29 5 60 10.0 1025.3 5.0 9.7 SW 1026.6 2.6 10.0 0.0
13-04-2021 17:34 5 57 9.9 1025.2 3.6 6.1 NW 1026.5 1.8 9.9 0.0
13-04-2021 17:39 5 59 9.7 1025.3 3.6 6.1 SW 1026.6 2.1 9.7 0.0
13-04-2021 17:44 5 58 9.8 1025.2 3.6 5.0 NE 1026.5 1.9 9.8 0.0
13-04-2021 17:49 5 57 10.0 1025.4 6.1 8.6 W 1026.7 1.9 10.0 0.0
13-04-2021 17:54 5 54 8.8 1025.1 15.8 18.4 W 1026.4 0.0 3.4 0.0
13-04-2021 17:59 5 54 8.0 1025.2 13.3 15.8 W 1026.5 -0.7 3.4 0.0
13-04-2021 18:04 5 55 7.9 1025.1 13.3 19.4 W 1026.4 -0.6 3.3 0.0
13-04-2021 18:09 5 56 7.8 1025.1 6.1 11.2 NWW 1026.4 -0.4 7.8 0.0
13-04-2021 18:14 5 58 7.8 1025.2 5.0 6.1 NW 1026.5 0.1 7.8 0.0
13-04-2021 18:19 5 62 7.3 1025.2 6.1 8.6 NE 1026.5 0.5 7.3 0.0
13-04-2021 18:24 5 64 6.8 1025.5 7.2 13.3 NW 1026.8 0.5 5.5 0.0
13-04-2021 18:29 5 69 6.6 1025.3 3.6 8.6 N 1026.6 1.3 6.6 0.0
13-04-2021 18:34 5 71 6.9 1025.1 3.6 6.1 E 1026.4 2.0 6.9 0.0
13-04-2021 18:39 5 68 7.5 1025.3 7.2 9.7 NW 1026.6 2.0 6.3 0.0
13-04-2021 18:44 5 70 7.4 1025.3 12.2 18.4 N 1026.6 2.3 3.2 0.0
13-04-2021 18:49 5 64 6.8 1025.3 15.8 20.9 W 1026.6 0.5 0.9 0.0
13-04-2021 18:54 5 61 6.9 1025.2 11.2 18.4 NW 1026.5 -0.1 3.2 0.0
13-04-2021 18:59 5 60 7.4 1025.3 11.2 17.3 NW 1026.6 0.2 3.7 0.0
13-04-2021 19:04 5 55 7.7 1025.6 12.2 15.8 W 1026.9 -0.8 3.5 0.0
13-04-2021 19:09 5 55 7.7 1025.3 12.2 15.8 W 1026.6 -0.8 3.5 0.0
13-04-2021 19:14 5 60 7.4 1025.2 7.2 13.3 NWW 1026.5 0.2 6.1 0.0
13-04-2021 19:19 5 60 7.3 1025.4 11.2 14.8 N 1026.7 0.1 3.6 0.0
13-04-2021 19:24 5 60 7.0 1025.4 8.6 13.3 NW 1026.7 -0.2 4.7 0.0
13-04-2021 19:29 5 61 6.5 1025.3 12.2 20.9 NW 1026.6 -0.5 2.1 0.0
13-04-2021 19:34 5 62 6.2 1025.7 12.2 15.8 NW 1027.0 -0.5 1.8 0.0
13-04-2021 19:39 5 63 5.9 1025.4 14.8 19.4 NW 1026.7 -0.6 0.3 0.0
13-04-2021 19:44 5 66 5.8 1025.3 12.2 19.4 W 1026.6 -0.1 1.3 0.0
13-04-2021 19:49 5 67 5.8 1025.6 17.3 23.4 W 1026.9 0.2 -0.9 0.0
13-04-2021 19:54 5 68 5.8 1025.4 12.2 17.3 N 1026.7 0.4 1.3 0.0
13-04-2021 19:59 5 67 5.9 1025.5 14.8 19.4 NW 1026.8 0.2 0.3 0.0
13-04-2021 20:04 5 66 6.0 1025.6 9.7 12.2 NWW 1026.9 0.1 3.0 0.0
13-04-2021 20:09 5 66 6.0 1025.5 9.7 12.2 NWW 1026.8 0.1 3.0 0.0
13-04-2021 20:14 5 64 5.7 1025.7 11.2 14.8 W 1027.0 -0.6 1.8 0.0
13-04-2021 20:19 5 64 5.6 1025.8 11.2 13.3 W 1027.1 -0.7 1.7 0.0
13-04-2021 20:24 5 65 5.3 1025.5 8.6 11.2 NW 1026.8 -0.7 2.9 0.0
13-04-2021 20:29 5 65 5.3 1025.7 9.7 13.3 W 1027.0 -0.7 2.2 0.0
13-04-2021 20:34 5 66 5.2 1025.8 9.7 15.8 W 1027.1 -0.6 2.1 0.0
13-04-2021 20:39 5 67 5.2 1026.0 12.2 14.8 W 1027.3 -0.4 0.6 0.0
13-04-2021 20:44 5 67 5.1 1025.9 7.2 9.7 W 1027.2 -0.5 3.7 0.0
13-04-2021 20:49 5 68 5.0 1025.9 7.2 12.2 W 1027.2 -0.4 3.6 0.0
13-04-2021 20:54 5 68 4.8 1025.9 8.6 11.2 W 1027.2 -0.6 2.3 0.0
13-04-2021 20:59 5 70 4.8 1026.0 11.2 13.3 W 1027.3 -0.2 0.8 0.0
13-04-2021 21:04 5 70 4.9 1026.0 8.6 11.2 W 1027.3 -0.1 2.5 0.0
13-04-2021 21:09 5 70 4.7 1025.9 7.2 9.7 W 1027.2 -0.3 3.3 0.0
13-04-2021 21:14 5 70 4.6 1026.1 9.7 11.2 SWW 1027.4 -0.4 1.4 0.0
13-04-2021 21:19 5 70 4.6 1025.8 8.6 13.3 W 1027.1 -0.4 2.1 0.0
13-04-2021 21:24 5 70 4.6 1026.2 8.6 12.2 W 1027.5 -0.4 2.1 0.0
13-04-2021 21:29 5 70 4.5 1025.9 6.1 8.6 SW 1027.2 -0.5 4.5 0.0
13-04-2021 21:34 5 70 4.6 1026.0 7.2 11.2 W 1027.3 -0.4 3.2 0.0
13-04-2021 21:39 5 70 4.5 1026.0 7.2 9.7 W 1027.3 -0.5 3.1 0.0
13-04-2021 21:44 5 69 4.5 1025.9 6.1 9.7 W 1027.2 -0.7 4.5 0.0
13-04-2021 21:49 5 70 4.2 1026.3 5.0 6.1 W 1027.6 -0.8 4.2 0.0
13-04-2021 21:54 5 70 4.1 1026.1 8.6 11.2 W 1027.4 -0.9 1.6 0.0
13-04-2021 21:59 5 70 4.1 1026.3 6.1 8.6 W 1027.6 -0.9 4.1 0.0
13-04-2021 22:04 5 70 4.2 1026.1 9.7 13.3 W 1027.4 -0.8 1.0 0.0
13-04-2021 22:09 5 69 4.5 1026.2 12.2 14.8 W 1027.5 -0.7 -0.2 0.0
13-04-2021 22:14 5 67 4.5 1026.3 8.6 11.2 W 1027.6 -1.1 2.0 0.0
13-04-2021 22:19 5 68 4.1 1026.2 7.2 11.2 W 1027.5 -1.3 2.7 0.0
13-04-2021 22:24 5 69 4.1 1026.1 6.1 8.6 W 1027.4 -1.1 4.1 0.0
13-04-2021 22:29 5 69 4.1 1026.2 6.1 7.2 W 1027.5 -1.1 4.1 0.0
13-04-2021 22:34 5 69 4.1 1026.2 7.2 9.7 W 1027.5 -1.1 2.7 0.0
13-04-2021 22:39 5 70 3.9 1026.2 7.2 8.6 W 1027.5 -1.1 2.5 0.0
13-04-2021 22:44 5 70 3.8 1026.1 11.2 14.8 W 1027.4 -1.2 -0.4 0.0
13-04-2021 22:49 5 71 3.8 1026.0 7.2 8.6 W 1027.3 -1.0 2.4 0.0
13-04-2021 22:54 5 71 3.6 1025.9 7.2 9.7 W 1027.2 -1.2 2.2 0.0
13-04-2021 22:59 5 72 3.5 1026.2 6.1 7.2 W 1027.5 -1.1 3.5 0.0
13-04-2021 23:04 5 72 3.6 1026.2 8.6 11.2 W 1027.5 -1.0 1.0 0.0
13-04-2021 23:09 5 73 3.6 1026.1 8.6 9.7 SWW 1027.4 -0.8 1.0 0.0
13-04-2021 23:14 5 73 3.7 1026.1 6.1 8.6 W 1027.4 -0.7 3.7 0.0
13-04-2021 23:19 5 73 3.8 1026.2 8.6 9.7 W 1027.5 -0.6 1.3 0.0
13-04-2021 23:24 5 72 3.8 1026.0 6.1 7.2 W 1027.3 -0.8 3.8 0.0
13-04-2021 23:29 5 72 3.7 1026.1 6.1 8.6 W 1027.4 -0.9 3.7 0.0
13-04-2021 23:34 5 72 3.6 1026.0 8.6 11.2 W 1027.3 -1.0 1.0 0.0
13-04-2021 23:39 5 72 3.5 1026.1 7.2 11.2 W 1027.4 -1.1 2.1 0.0
13-04-2021 23:44 5 73 3.4 1026.0 8.6 9.7 W 1027.3 -1.0 0.8 0.0
13-04-2021 23:49 5 73 3.5 1026.0 12.2 17.3 W 1027.3 -0.9 -1.4 0.0
13-04-2021 23:54 5 73 3.6 1025.9 9.7 13.3 W 1027.2 -0.8 0.3 0.0
13-04-2021 23:59 5 73 3.6 1026.0 11.2 14.8 W 1027.3 -0.8 -0.6 0.0

 

 

 Tagesdaten                                                                  Tabelle: 08 UHR

STATIONHÖHELUFTD.TEMP.T-MinT-MaxU%RR1RR12SSSDDFFFXWetter+WolkenBöen
UFS TW Ems 0 1028.5 5.9 3.8 6.0 --- ---- --- --- NW 36 --- --- ---
UFS Deutsche Bucht 0 1027.5 5.3 3.0 5.6 76 ---- --- --- NW 36 --- --- ---
Helgoland 4 1027.1 5.2 3.7 5.4 79 0.0 0 0 NW 28 42 wolkenlos ---
List/Sylt 26 1024.5 5.0 3.0 5.2 80 0.0 0 0 W 40 54 Regen Windböen
Schleswig 43 1025.3 2.9 1.2 3.9 89 0.0 2 0 SW 9 17 Regen ---
Leuchtturm Kiel 5 1025.1 3.3 2.1 4.4 82 ---- --- --- SW 35 47 --- ---
Kiel 27 1025.4 3.4 1.8 4.8 88 0.0 1 0 W 14 26 Schneefall ---
Fehmarn 3 1024.9 4.0 3.1 5.6 88 0.0 0 0 SW 35 44 --- ---
Arkona 42 1024.3 3.6 1.6 4.5 80 0.0 0 0 W 31 43 --- ---
Norderney 11 1028.5 4.3 2.6 5.6 74 0.0 1 0 NW 44 68 Schneeregen Sturmböen
Leuchtt. Alte Weser 32 1027.2 5.0 2.7 5.5 77 ---- --- --- NW 43 --- --- ---
Cuxhaven 5 1027.2 5.2 2.8 5.3 77 0.0 0 0 W 23 39 --- ---
Hamburg-Flh. 11 1027.5 1.7 0.5 5.0 92 0.3 0 0 SW 14 22 Hagelschauer ---
Schwerin 59 1027.1 0.8 -0.7 5.5 91 0.0 0 0 SW 19 27 --- ---
Rostock 4 1025.6 2.3 1.2 6.9 84 0.0 0 0 SW 17 30 --- ---
Greifswald 2 1025.7 2.0 1.0 6.1 84 0.0 0 0 SW 11 23 --- ---
Emden 0 1029.0 4.5 1.7 4.5 77 0.2 1 0 W 16 29 Regen ---
Bremen-Flh. 5 1029.3 1.4 -1.0 4.9 91 0.0 0 0 W 12 20 heiter ---
Lüchow 17 1028.6 1.5 -1.1 5.3 90 0.0 0 0 SW 9 18 --- ---
Marnitz 81 1027.5 1.0 -0.5 5.4 87 0.0 0 0 W 17 27 --- ---
Waren 70 1027.0 1.4 0.0 5.0 84 0.0 0 0 W 12 25 --- ---
Neuruppin 38 1028.0 1.1 -0.4 4.6 88 0.0 0 0 W 11 19 --- ---
Angermünde 56 1027.6 2.1 -0.2 6.7 83 0.0 0 0 SW 6 22 --- ---
Münster/Osnabr.-Flh. 48 1031.3 0.9 -0.8 4.3 92 0.0 0 0 W 9 11 heiter ---
Hannover-Flh. 59 1029.7 1.3 0.2 4.5 89 0.0 0 0 W 15 22 heiter ---
Magdeburg 76 1029.6 1.5 0.2 5.6 85 0.0 0 0 W 9 17 --- ---
Potsdam 81 1028.8 0.8 -1.1 6.1 90 0.0 0 0 W 15 27 --- ---
Berlin-Tegel 37 1028.5 1.4 -0.9 6.3 87 0.0 0 0 W 13 18 heiter ---
Berlin-Tempelhof 48 1028.5 2.2 1.0 7.1 82 0.0 0 --- W 14 20 --- ---
Berlin-Dahlem 51 1028.4 1.7 -0.1 6.8 --- ---- 0 0 W 14 --- heiter ---
Lindenberg 91 1028.8 0.6 -1.0 6.0 87 0.0 0 0 W 8 15 --- ---
Düsseldorf-Flh. 45 1032.7 -0.7 -3.3 3.3 94 0.0 0 0 SW 7 8 bewölkt ---
Essen 150 1032.6 -0.3 -1.1 4.7 90 0.0 0 0 SW 4 9 --- ---
Kahler Asten 839 ------ -3.2 -4.0 -1.9 96 0.0 0 11 NW 22 38 Schneegriesel ---
Bad Lippspringe 157 1031.7 0.2 -1.2 3.9 92 0.0 0 0 NW 5 9 --- ---
Fritzlar 174 1032.3 -2.1 -3.8 3.3 96 ---- 0 0 NW 4 --- bewölkt ---
Brocken 1142 ------ -5.1 -6.3 -4.0 95 ---- --- --- W 45 59 gefrierender Nebel Windböen
Leipzig-Flh. 142 1030.3 0.1 -1.7 5.6 91 0.0 0 0 SW 13 17 heiter ---
Dresden-Flh. 227 1029.8 1.0 0.4 4.3 82 0.0 0 0 W 10 17 bedeckt ---
Cottbus 69 1028.8 1.1 -1.5 5.4 88 0.0 0 0 SW 4 8 --- ---
Görlitz 238 1029.2 1.1 0.5 2.9 86 ---- --- 0 W 10 18 --- ---
Aachen 231 1033.3 -0.3 -1.3 3.0 83 0.0 0 0 SW 8 11 wolkenlos ---
Nürburg 485 1033.2 -1.8 -2.8 2.0 89 0.0 0 0 S 3 9 --- ---
Köln/Bonn-Flh. 92 1033.2 -2.7 -3.9 3.0 92 0.0 0 0 O 5 9 heiter ---
Gießen/Wettenberg 203 1032.7 -1.9 -3.8 4.2 89 0.0 0 0 SW 5 7 wolkenlos ---
Wasserkuppe 921 ------ -3.7 -4.2 -2.5 96 0.0 0 0 N 22 31 Nebel ---
Meiningen 450 1032.2 -2.5 -3.7 1.9 100 0.0 0 0 N 5 12 gefrierender Nebel ---
Erfurt 316 1031.6 -1.4 -3.1 3.3 93 0.0 0 0 SW 9 13 heiter ---
Gera 311 1030.9 -0.6 -1.4 3.3 93 0.0 0 0 W 9 13 --- ---
Fichtelberg 1213 ------ -5.0 -5.5 -4.2 95 0.0 0 51 NW 20 35 gefrierender Nebel ---
Trier 265 1033.4 -1.5 -2.0 5.5 99 0.0 0 0 NO 5 9 gefrierender Nebel ---
Hahn-Flh. 497 1033.1 -1.4 -2.3 1.8 89 0.0 0 0 -- --- --- --- ---
Frankfurt/M-Flh. 112 1032.6 -1.4 -3.3 4.7 90 0.0 0 0 NO 3 5 heiter ---
OF-Wetterpark 119 1032.5 -1.4 -3.1 4.3 92 0.0 0 0 - 0 3 --- ---
Würzburg 268 1032.4 -0.3 -1.5 5.3 86 0.0 0 0 N 6 12 --- ---
Bamberg 239 1031.7 -1.7 -3.5 5.7 92 0.0 0 0 - 0 3 --- ---
Hof 567 1031.0 -1.3 -1.3 2.1 88 0.0 0 0 NW 7 13 --- ---
Weiden 438 1030.5 -0.3 -0.7 2.1 96 0.0 0 0 NW 3 6 Nebel ---
Saarbrücken-Flh. 320 1032.4 0.6 -0.2 5.3 87 0.0 0 0 NO 11 18 bewölkt ---
Karlsruhe-Rheinst. 116 1032.1 0.6 -1.6 6.1 91 0.0 0 0 O 4 7 Schneefall ---
Mannheim 96 1032.3 -0.3 -2.4 5.9 88 0.0 0 0 N 8 11 wolkenlos ---
Stuttgart-Flh. 371 1031.8 0.0 -2.0 3.7 86 0.0 0 0 - 0 4 heiter ---
Öhringen 276 1032.0 -0.3 -1.7 5.1 85 0.0 0 0 SO 2 4 --- ---
Nürnberg-Flh. 314 1031.2 -0.5 -1.7 5.4 91 0.0 0 0 NW 6 9 heiter ---
Regensburg 366 1030.2 1.0 0.6 3.0 93 0.0 0 0 NW 5 10 Nebel ---
Straubing 351 1030.0 1.6 0.4 2.2 93 0.0 2 0 SW 8 13 Schneefall ---
Großer Arber 1436 ------ -5.4 -6.3 -5.1 93 0.1 1 121 N 15 22 Schneefall ---
Lahr 155 1031.5 1.2 -0.8 7.3 92 0.0 0 0 NO 3 11 --- ---
Freudenstadt 797 ------ -1.8 -3.7 0.3 83 0.0 0 0 NO 9 14 --- ---
Stötten 734 1032.2 -2.8 -3.0 1.4 95 0.0 0 1 W 5 11 gefrierender Nebel ---
Augsburg 462 1031.0 -0.2 -1.0 2.0 89 0.0 0 0 W 4 7 --- ---
München-Flh. 444 1030.4 0.6 0.2 2.0 95 0.1 1 1 SW 7 --- Schneefall ---
Fürstenzell 476 1030.3 -0.1 -0.2 1.1 97 2.1 3 1 SW 5 9 leichter Schneefall ---
Feldberg/Schw. 1486 ------ -6.1 -6.6 -4.8 90 0.0 0 63 O 19 23 --- ---
Konstanz 443 1031.2 0.5 -1.1 3.2 96 0.0 0 0 NO 2 8 Nebel ---
Kempten 705 1030.9 -0.7 -1.1 -0.2 94 0.0 0 1 S 2 6 Dunst oder flacher Nebel ---
Oberstdorf 806 ------ -1.6 -2.4 -0.7 89 0.1 2 5 N 8 12 Schneefall ---
Zugspitze 2960 ------ -16.7 -17.3 -15.3 87 ---- --- 405 -- --- --- Schneefall ---
Hohenpeißenberg 977 ------ -2.4 -2.9 -2.1 96 0.1 1 4 NW 5 12 Schneegriesel ---

                                                                                                      Tabelle: 20 UHR  

STATIONHÖHELUFTD.TEMP.T-MinT-MaxU%RR1RR12SSSDDFFFXWetter+WolkenBöen
UFS TW Ems 0 1030.7 5.6 3.5 6.0 --- ---- --- --- NW 29 --- --- ---
UFS Deutsche Bucht 26 1029.9 5.6 4.3 5.8 80 ---- --- --- NW 32 --- --- ---
Helgoland 4 1029.7 5.7 5.0 7.3 75 0.0 0 0 NW 27 37 --- ---
List/Sylt 26 1027.9 5.3 3.6 7.5 69 0.0 0 0 NW 31 50 wolkenlos Windböen
Schleswig 43 1027.7 4.9 2.8 10.3 65 0.0 1 0 W 20 40 --- ---
Leuchtturm Kiel 5 1026.8 5.9 3.2 6.7 63 ---- --- --- W 42 51 --- Windböen
Kiel 27 1027.2 5.4 3.0 9.1 63 0.0 1 0 NW 25 45 wolkenlos ---
Fehmarn 3 1026.2 6.3 3.9 7.1 69 0.0 0 0 W 40 48 wolkenlos ---
Arkona 42 1025.0 4.3 3.5 7.8 80 0.0 0 0 W 27 44 wolkenlos ---
Norderney 11 1030.7 5.8 3.6 7.0 71 0.0 1 0 NW 32 40 --- ---
Leuchtt. Alte Weser 32 1030.0 4.1 3.4 5.7 87 ---- --- --- NW 25 --- --- ---
Cuxhaven 5 1029.6 5.7 5.2 8.0 73 0.0 0 0 NW 26 40 --- ---
Hamburg-Flh 11 1028.7 5.6 1.7 9.3 66 0.0 0 0 NW 22 37 heiter ---
Schwerin 59 1027.4 6.0 0.9 9.5 63 0.0 1 0 W 12 35 --- ---
Rostock 4 1026.5 5.7 2.3 8.0 74 0.0 0 0 W 25 46 --- ---
Greifswald 2 1025.9 6.2 2.1 9.3 63 0.0 0 0 W 20 31 --- ---
Emden 0 1030.9 5.5 3.7 8.8 70 0.0 1 0 NW 14 30 wolkenlos ---
Bremen-Flh. 5 1030.4 5.4 1.5 8.4 72 0.0 1 0 NW 20 46 Regenschauer ---
Lüchow 17 1028.4 6.8 1.5 10.1 54 0.0 0 0 NW 12 30 wolkenlos ---
Marnitz 81 1027.3 6.1 0.9 9.5 62 0.0 0 0 NW 18 29 --- ---
Waren 70 1027.0 4.6 1.4 8.9 71 0.0 1 0 W 6 27 Regen ---
Neuruppin 38 1027.4 6.1 1.1 11.2 65 0.0 0 0 W 11 20 --- ---
Angermünde 56 1026.9 6.6 2.2 9.5 65 0.0 0 0 NW 15 32 --- ---
Münster/Osnabr.-Flh. 48 1031.3 4.5 0.9 9.9 82 0.4 1 0 S 5 41 Regenschauer ---
Hannover-Flh. 59 1030.0 4.1 1.3 9.3 80 0.0 1 0 W 5 31 Regenschauer ---
Magdeburg 76 1029.0 6.2 1.5 10.0 66 0.0 0 0 N 9 30 leichter Regen ---
Potsdam 81 1027.6 6.3 0.9 10.4 59 0.0 0 0 W 13 26 --- ---
Berlin-Tegel 37 1027.4 6.0 1.4 9.8 60 0.0 0 0 W 8 20 heiter ---
Berlin-Tempelhof 48 1027.4 6.8 2.2 9.7 61 0.0 0 --- W 12 19 --- ---
Berlin-Dahlem 51 1027.4 6.1 1.7 9.5 --- ---- 0 0 W 11 --- heiter ---
Lindenberg 91 1027.1 6.8 0.5 8.7 54 0.0 0 0 NW 16 29 Regen ---
Düsseldorf-Flh. 45 1031.6 7.4 -0.7 10.4 51 0.0 0 0 N 12 28 bewölkt ---
Essen 150 1031.4 6.9 -0.2 9.6 47 0.0 0 0 N 10 21 --- ---
Kahler Asten 839 ------ -0.7 -3.2 2.1 79 0.0 0 8 NW 24 40 leichter Schneefall ---
Bad Lippspringe 157 1030.6 5.6 0.2 9.4 61 0.0 0 0 N 9 26 --- ---
Fritzlar 174 1030.0 6.4 -2.1 8.7 43 ---- 0 0 N 18 --- heiter ---
Brocken 1142 ------ -4.1 -5.2 -1.9 95 ---- --- --- NW 41 51 gefrierender Nebel Windböen
Leipzig-Flh. 142 1028.7 5.5 0.2 9.1 66 0.0 0 0 NW 17 35 heiter ---
Dresden-Flh. 227 1027.7 4.8 1.1 7.1 67 0.0 0 0 NW 9 28 Regenschauer ---
Cottbus 69 1026.8 6.8 1.1 9.1 54 0.0 0 0 NW 6 13 --- ---
Görlitz 238 1026.9 5.1 1.1 7.4 61 ---- --- 0 NW 6 20 Regen ---
Aachen 231 1031.6 5.9 -0.3 8.7 52 0.0 0 0 N 10 20 --- ---
Nürburg 485 1031.5 3.5 -1.8 6.0 57 0.0 0 0 N 6 15 --- ---
Köln/Bonn-Flh. 92 1031.3 7.4 -2.7 9.3 45 0.0 0 0 N 14 25 bewölkt ---
Gießen/Wettenberg 203 1030.8 4.1 -1.9 8.9 69 0.0 0 0 W 10 16 --- ---
Wasserkuppe 921 ------ -0.2 -3.7 3.4 75 0.0 0 0 NW 16 24 wolkenlos ---
Meiningen 450 1030.9 1.2 -2.5 6.1 90 0.1 0 0 N 24 31 leichter Schneefall ---
Erfurt 316 1029.9 3.4 -1.4 7.5 73 0.1 1 0 N 21 27 Hagelschauer ---
Gera 311 1029.2 3.1 -0.6 6.7 78 0.0 0 0 W 12 32 Schneefall ---
Fichtelberg 1213 ------ -3.9 -5.0 -2.4 95 0.0 0 51 NW 28 37 Schneefall ---
Trier 265 1031.2 6.1 -1.6 8.4 48 0.0 0 0 O 2 10 wolkenlos ---
Hahn-Flh. 497 1031.1 4.0 -1.3 5.3 52 0.0 0 0 -- --- --- --- ---
Frankfurt/M-Flh. 112 1030.9 6.3 -1.4 9.2 55 0.0 0 0 NW 17 31 heiter ---
OF-Wetterpark 119 1030.6 6.8 -1.4 9.6 53 0.0 0 0 NO 11 27 Regen ---
Würzburg 268 1030.0 6.8 -0.3 9.5 41 0.0 0 0 NW 10 19 --- ---
Bamberg 239 1029.2 6.2 -1.7 8.9 45 0.0 0 0 N 8 23 wolkenlos ---
Hof 567 1029.2 2.8 -1.3 4.9 61 0.0 0 0 NW 16 40 --- ---
Weiden 438 1028.7 4.4 -0.4 6.9 46 0.0 0 0 N 12 31 --- ---
Saarbrücken-Flh. 320 1030.8 6.0 0.6 8.4 43 0.0 0 0 N 12 24 heiter ---
Karlsruhe-Rheinst. 116 1030.2 7.6 0.5 10.0 47 0.0 0 0 N 16 24 --- ---
Mannheim 96 1030.5 7.0 -0.4 9.9 48 0.0 0 0 N 10 25 wolkenlos ---
Stuttgart-Flh. 371 1029.6 5.1 0.1 8.5 43 0.0 0 0 NO 11 24 heiter ---
Öhringen 276 1029.8 6.2 -0.4 9.1 48 0.0 0 0 N 9 21 --- ---
Nürnberg-Flh. 314 1029.1 5.7 -0.5 8.7 47 0.0 0 0 N 12 31 heiter ---
Regensburg 366 1028.5 4.5 1.0 9.0 56 0.0 0 0 NW 10 33 Regen ---
Straubing 351 1028.3 4.4 1.6 6.5 69 0.0 0 0 NO 10 19 --- ---
Großer Arber 1436 ------ -5.5 -5.6 -3.9 92 0.0 1 125 N 29 40 Schneefall ---
Lahr 155 1029.9 5.8 1.3 9.8 50 0.0 0 0 NO 14 26 wolkenlos ---
Freudenstadt 797 ------ 1.3 -2.3 4.2 51 0.0 1 0 N 13 23 --- ---
Stötten 734 1030.3 1.9 -2.9 4.8 56 0.0 0 0 NW 15 25 --- ---
Augsburg 462 1029.4 2.6 -0.2 6.4 62 0.0 0 0 N 9 24 --- ---
München-Flh. 444 1028.6 4.2 0.5 6.8 61 0.0 0 0 N 7 --- stark bewölkt ---
Fürstenzell 476 1028.1 2.2 -0.1 4.5 85 0.0 2 0 W 11 21 --- ---
Feldberg/Schw. 1486 ------ -5.6 -6.1 -4.2 88 0.0 --- 65 NO 27 31 Schneegriesel ---
Konstanz 443 1029.8 4.1 0.4 5.2 72 0.0 1 0 N 4 9 --- ---
Kempten 705 1030.0 1.0 -0.8 4.7 75 0.0 0 0 W 7 16 leichter Schneefall ---
Oberstdorf 806 ------ 0.0 -1.7 4.2 84 0.0 0 0 S 8 10 --- ---
Zugspitze 2960 ------ -16.7 -16.9 -14.8 86 ---- --- --- -- --- --- Schneefall ---
Hohenpeißenberg 977 ------ -1.9 -2.4 1.0 97 0.0 1 0 SW 4 19 Schneefall ---

  

  • Wetterzustand
  • Windrichtung und -geschwindigkeit
  • Luftdruck
  • relative Luftfeuchtigkeit
  • Sichtweite
  • Gesamtbedeckungsgrad
  • Niederschlag
  • Sonnenscheindauer

 Höhe:     m über NN
Luftd.:   auf Meereshöhe reduzierter Luftdruck in hPa
TEMP.:   Lufttemperatur in Grad Celsius
T-MIN:   Minimumtemperatur der Luft in 2m Höhe in Grad Celsius, von 18 UTC Vortag bis 06 UTC heute
T-MAX:  Maximumtemperatur der Luft in 2m Höhe in Grad Celsius, von 18 UTC Vortag bis 06 UTC heute
RR1:     Niederschlagsmenge, einstündig, mm ist gleich Liter pro
RR12:   Niederschlagsmenge, 12 stündig, 18 UTC Vortag bis 06 UTC heute in mm ist gleich Liter pro
SSS:     Gesamtschneehöhe
DD:      Windrichtung
FF:       Windgeschwindigkeit letztes 10-Minutenmittel in km/h
FX:       höchste Windspitze während der letzten Stunde in km/h
---:      Wert nicht vorhanden

 

2009-2021

Unwetterwarnungen

 

  Radarbild           

aktueller Radarfilm Deutschland

  Europa-Meteoalarm